Saint Marys, Maryland
Current Conditions -  °F | °C
As of 5:53 PM on Wednesday 17 Dec 2014 (Local Time) from KNUI Reporting Station
Clear Clear  
Wind Chill: 47°   Ceiling: Unl
Heat Index: 47°   Visibility: 10mi
Dew Point: 36°   Wind: 0mph
Humidity: 66%   Direction: NA
Pressure: 29.99"   Gusts: NA
Location:  38.1867°N, 76.4348°W
Report Text: KNUI 172253Z AUTO 00000KT 10SM CLR 08/02 A2999 RMK AO2 SLP153 T00830022
Loading
Personal Weather Stations






























Interactive Weather Map New forecast layout! Learn more

10-Day Weather Forecast

Advertisements
Track Severe Weather on mobile